Time;durP1;ratioP1;P1;durP2;ratioP2;P2;SDS_P1;SDS_P2;PMS_P1;PMS_P2;Temp;Humidity;BMP_temperature;BMP_pressure;BME280_temperature;BME280_humidity;BME280_pressure;Samples;Min_cycle;Max_cycle;Signal;HPM_P1;HPM_P2
2021/11/08 00:00:56;;;;;;;109.00;36.63;;;9.90;99.90;;;;;;5074428;28;20129;-48
2021/11/08 00:03:27;;;;;;;96.57;37.47;;;9.80;99.90;;;;;;5074718;28;20033;-48
2021/11/08 00:05:53;;;;;;;84.55;34.42;;;9.80;99.90;;;;;;5074404;28;20041;-48
2021/11/08 00:08:19;;;;;;;70.68;31.50;;;9.90;99.90;;;;;;5072377;28;20048;-48
2021/11/08 00:10:47;;;;;;;74.93;33.63;;;9.80;99.90;;;;;;5072559;28;20070;-48
2021/11/08 00:13:14;;;;;;;80.18;34.60;;;9.70;99.90;;;;;;5074525;28;20036;-48
2021/11/08 00:21:01;;;;;;;59.05;27.80;;;9.80;99.90;;;;;;4973404;28;20102;-48
2021/11/08 00:23:28;;;;;;;56.80;29.65;;;9.80;99.90;;;;;;4973469;28;20182;-49
2021/11/08 00:25:57;;;;;;;44.33;24.48;;;9.80;99.90;;;;;;4973016;28;20518;-48
2021/11/08 00:28:24;;;;;;;66.63;31.95;;;9.80;99.90;;;;;;4970944;28;20608;-48
2021/11/08 00:30:51;;;;;;;53.55;27.10;;;9.80;99.90;;;;;;4972969;28;20399;-48
2021/11/08 00:33:19;;;;;;;52.63;27.30;;;10.00;99.90;;;;;;4973213;28;20039;-48
2021/11/08 00:35:47;;;;;;;55.10;28.30;;;10.10;99.90;;;;;;4973193;28;20406;-48
2021/11/08 00:38:13;;;;;;;50.17;25.25;;;10.00;99.90;;;;;;4973011;28;20034;-48
2021/11/08 00:40:39;;;;;;;56.42;27.92;;;9.90;99.90;;;;;;4972949;28;20601;-48
2021/11/08 00:43:06;;;;;;;51.83;25.38;;;9.90;99.90;;;;;;4972873;28;20225;-47
2021/11/08 00:45:32;;;;;;;63.53;29.63;;;9.80;99.90;;;;;;4973153;28;20113;-48
2021/11/08 00:47:58;;;;;;;65.20;28.92;;;10.00;99.90;;;;;;4992272;28;20070;-48
2021/11/08 00:50:24;;;;;;;61.92;29.77;;;10.00;99.90;;;;;;4992315;28;20026;-48
2021/11/08 00:52:50;;;;;;;69.35;31.40;;;10.20;99.90;;;;;;4992422;28;20042;-48
2021/11/08 00:55:17;;;;;;;72.72;30.90;;;10.30;99.90;;;;;;5029015;28;20535;-48
2021/11/08 00:57:47;;;;;;;74.32;31.83;;;10.10;99.90;;;;;;5053200;28;20060;-48
2021/11/08 01:00:16;;;;;;;69.32;31.52;;;10.20;99.90;;;;;;5053671;28;20037;-48
2021/11/08 01:02:42;;;;;;;69.82;32.00;;;10.10;99.90;;;;;;5051686;28;20036;-48
2021/11/08 01:05:11;;;;;;;67.10;32.33;;;10.20;99.90;;;;;;5053327;28;20037;-48
2021/11/08 01:07:37;;;;;;;67.85;30.90;;;10.30;99.90;;;;;;5053887;28;20095;-48
2021/11/08 01:10:07;;;;;;;75.15;32.67;;;10.40;99.90;;;;;;5053741;28;20033;-49
2021/11/08 01:12:33;;;;;;;68.38;33.92;;;10.60;99.90;;;;;;5051479;28;20037;-48
2021/11/08 01:14:59;;;;;;;73.55;32.03;;;10.50;99.90;;;;;;5052965;28;20029;-48
2021/11/08 01:17:25;;;;;;;74.75;33.63;;;10.40;99.90;;;;;;5053050;28;20052;-48
2021/11/08 01:19:52;;;;;;;69.47;30.95;;;10.30;99.90;;;;;;5053266;28;20053;-48
2021/11/08 01:22:20;;;;;;;71.03;33.42;;;10.50;99.90;;;;;;5051360;28;20045;-48
2021/11/08 01:24:53;;;;;;;65.55;30.50;;;10.50;99.90;;;;;;5053498;28;20039;-48
2021/11/08 01:27:39;;;;;;;66.25;29.90;;;10.60;99.90;;;;;;5053172;28;20037;-48
2021/11/08 01:30:12;;;;;;;72.55;32.03;;;10.20;99.90;;;;;;5053102;28;20044;-47
2021/11/08 01:32:38;;;;;;;74.68;32.60;;;10.10;99.90;;;;;;5053149;28;20029;-47
2021/11/08 01:35:04;;;;;;;71.72;32.97;;;10.20;99.90;;;;;;5051362;28;20041;-47
2021/11/08 01:37:30;;;;;;;83.72;37.00;;;10.00;99.90;;;;;;5018055;28;20576;-47
2021/11/08 01:39:57;;;;;;;88.18;34.22;;;10.20;99.90;;;;;;5053288;28;20021;-47
2021/11/08 01:42:23;;;;;;;88.53;35.55;;;10.00;99.90;;;;;;5053293;28;20115;-47
2021/11/08 01:44:49;;;;;;;92.22;35.05;;;9.90;99.90;;;;;;5053184;28;20071;-47
2021/11/08 01:47:15;;;;;;;88.28;33.33;;;10.00;99.90;;;;;;5052790;28;20488;-47
2021/11/08 01:49:41;;;;;;;93.10;35.83;;;9.80;99.90;;;;;;5052908;28;20090;-47
2021/11/08 01:52:08;;;;;;;97.00;36.30;;;9.70;99.90;;;;;;5051070;28;20166;-47
2021/11/08 01:54:38;;;;;;;108.68;36.30;;;9.80;99.90;;;;;;5052768;28;20025;-47
2021/11/08 01:57:07;;;;;;;139.50;38.97;;;9.90;99.90;;;;;;5053991;28;20037;-47
2021/11/08 01:59:33;;;;;;;155.02;36.40;;;9.90;99.90;;;;;;5056674;28;20059;-47
2021/11/08 02:01:59;;;;;;;115.25;35.30;;;10.10;99.90;;;;;;5056826;28;20484;-47
2021/11/08 02:04:26;;;;;;;121.70;36.75;;;10.10;99.90;;;;;;5056998;28;20029;-48
2021/11/08 02:06:52;;;;;;;128.40;36.60;;;9.90;99.90;;;;;;5038285;28;20061;-48
2021/11/08 02:09:19;;;;;;;125.05;35.20;;;10.00;99.90;;;;;;5056565;28;20037;-47
2021/11/08 02:11:45;;;;;;;124.70;35.53;;;10.10;99.90;;;;;;5056731;28;20100;-48
2021/11/08 02:14:12;;;;;;;209.55;34.95;;;10.10;99.90;;;;;;5061822;28;20050;-47
2021/11/08 02:16:38;;;;;;;194.30;37.00;;;10.00;99.90;;;;;;5076600;28;20048;-47
2021/11/08 02:19:05;;;;;;;115.88;35.25;;;10.00;99.90;;;;;;5076492;28;20487;-47
2021/11/08 02:21:31;;;;;;;144.57;38.08;;;10.10;99.90;;;;;;5076725;28;20127;-47
2021/11/08 02:23:58;;;;;;;95.00;34.80;;;10.10;99.90;;;;;;5076804;28;20442;-47
2021/11/08 02:26:24;;;;;;;91.57;35.05;;;10.10;99.90;;;;;;5076298;28;20101;-48
2021/11/08 02:28:52;;;;;;;99.28;33.33;;;10.10;99.90;;;;;;5076425;28;20427;-47
2021/11/08 02:31:22;;;;;;;94.75;33.05;;;10.20;99.90;;;;;;5076284;28;20033;-47
2021/11/08 02:33:50;;;;;;;96.82;34.30;;;10.20;99.90;;;;;;5076222;28;20063;-48
2021/11/08 02:36:16;;;;;;;79.18;32.40;;;10.20;99.90;;;;;;5076370;28;20357;-47
2021/11/08 02:38:49;;;;;;;82.82;33.30;;;10.20;99.90;;;;;;5076049;28;20554;-47
2021/11/08 02:41:16;;;;;;;80.25;31.98;;;10.20;99.90;;;;;;5074329;28;20094;-47
2021/11/08 02:43:43;;;;;;;68.75;29.38;;;10.20;99.90;;;;;;5075983;28;20037;-47
2021/11/08 02:46:13;;;;;;;72.72;27.90;;;10.10;99.90;;;;;;5075387;28;20510;-47
2021/11/08 02:48:43;;;;;;;69.88;29.02;;;10.10;99.90;;;;;;5075802;28;20041;-49
2021/11/08 02:53:43;;;;;;;90.15;31.33;;;10.20;99.90;;;;;;5076377;28;20117;-47
2021/11/08 02:56:10;;;;;;;82.43;28.55;;;10.20;99.90;;;;;;5075931;28;20055;-47
2021/11/08 02:58:38;;;;;;;91.57;31.65;;;10.00;99.90;;;;;;5075718;28;20487;-47
2021/11/08 03:01:06;;;;;;;90.13;31.85;;;9.80;99.90;;;;;;5075440;28;20107;-47
2021/11/08 03:03:36;;;;;;;94.63;33.75;;;10.00;99.90;;;;;;5056165;28;20040;-47
2021/11/08 03:06:10;;;;;;;89.53;36.58;;;9.90;99.90;;;;;;5075572;28;20029;-47
2021/11/08 03:08:36;;;;;;;96.45;31.85;;;10.10;99.90;;;;;;5074494;28;20111;-47
2021/11/08 03:11:03;;;;;;;86.60;32.85;;;10.00;99.90;;;;;;5075735;28;20107;-47
2021/11/08 03:13:33;;;;;;;81.25;32.55;;;10.10;99.90;;;;;;5075972;28;20448;-47
2021/11/08 03:19:05;;;;;;;82.82;33.55;;;9.90;99.90;;;;;;5002203;28;20057;-48
2021/11/08 03:21:31;;;;;;;75.30;33.08;;;10.20;99.90;;;;;;5013532;28;20526;-48
2021/11/08 03:24:00;;;;;;;97.47;34.97;;;10.20;99.90;;;;;;5013404;28;20092;-48
2021/11/08 03:28:53;;;;;;;77.40;33.03;;;10.40;99.90;;;;;;5013420;28;20026;-49
2021/11/08 03:31:20;;;;;;;88.30;34.28;;;10.20;99.90;;;;;;5013346;28;20034;-48
2021/11/08 03:33:48;;;;;;;77.30;31.38;;;10.20;99.90;;;;;;5013286;28;20045;-48
2021/11/08 03:36:15;;;;;;;78.72;32.22;;;10.20;99.90;;;;;;4996803;28;20484;-48
2021/11/08 03:38:42;;;;;;;78.43;32.22;;;9.90;99.90;;;;;;5013178;28;20034;-49
2021/11/08 03:41:08;;;;;;;90.55;34.70;;;10.00;99.90;;;;;;5013283;28;20041;-48
2021/11/08 03:43:35;;;;;;;89.70;33.20;;;10.00;99.90;;;;;;4996826;28;20124;-48
2021/11/08 03:46:02;;;;;;;85.32;31.55;;;10.00;99.90;;;;;;5013274;28;20497;-48
2021/11/08 03:48:28;;;;;;;92.28;34.30;;;10.20;99.90;;;;;;5013031;28;20030;-48
2021/11/08 03:50:54;;;;;;;91.70;32.13;;;10.10;99.90;;;;;;5012879;28;20033;-49
2021/11/08 03:53:21;;;;;;;79.38;29.42;;;9.90;99.90;;;;;;5053964;28;20048;-48
2021/11/08 03:55:47;;;;;;;93.65;32.67;;;9.70;99.90;;;;;;5035911;28;20067;-48
2021/11/08 03:58:14;;;;;;;94.53;32.15;;;9.70;99.90;;;;;;5052715;28;20045;-48
2021/11/08 04:00:43;;;;;;;89.68;32.78;;;9.90;99.90;;;;;;5050682;28;20044;-49
2021/11/08 04:03:11;;;;;;;103.65;32.10;;;10.00;99.90;;;;;;5045808;28;20413;-49
2021/11/08 04:05:39;;;;;;;92.93;33.00;;;9.90;99.90;;;;;;5051839;28;20036;-48
2021/11/08 04:08:09;;;;;;;121.78;33.45;;;9.90;99.90;;;;;;5051514;28;20024;-49
2021/11/08 04:10:36;;;;;;;95.78;33.45;;;10.10;99.90;;;;;;5051792;28;20070;-48
2021/11/08 04:13:05;;;;;;;87.55;32.03;;;10.20;99.90;;;;;;5050658;28;20432;-48
2021/11/08 04:15:38;;;;;;;95.57;33.90;;;10.10;99.90;;;;;;5034666;28;20118;-48
2021/11/08 04:18:10;;;;;;;72.53;28.50;;;10.10;99.90;;;;;;5051333;28;20045;-48
2021/11/08 04:20:39;;;;;;;87.32;28.45;;;10.00;99.90;;;;;;5049440;28;20423;-47
2021/11/08 04:23:05;;;;;;;143.63;38.80;;;9.80;99.90;;;;;;5052054;28;20033;-48
2021/11/08 04:25:31;;;;;;;91.07;30.13;;;9.70;99.90;;;;;;5052011;28;20523;-48
2021/11/08 04:27:57;;;;;;;97.35;29.50;;;9.60;99.90;;;;;;5072210;28;20055;-48
2021/11/08 04:30:26;;;;;;;103.30;32.95;;;9.60;99.90;;;;;;5073498;28;20028;-48
2021/11/08 04:35:29;;;;;;;86.45;32.30;;;9.90;99.90;;;;;;5071080;28;20024;-48
2021/11/08 04:38:06;;;;;;;93.32;30.55;;;10.10;99.90;;;;;;5073187;28;20075;-48
2021/11/08 04:46:04;;;;;;;88.97;33.05;;;10.30;99.90;;;;;;5073360;28;20021;-47
2021/11/08 04:48:50;;;;;;;97.93;31.90;;;10.30;99.90;;;;;;5050951;28;20461;-48
2021/11/08 04:53:49;;;;;;;117.40;33.17;;;10.70;99.90;;;;;;5051095;28;20096;-47
2021/11/08 05:31:36;;;;;;;161.85;51.08;;;10.60;99.90;;;;;;5030950;28;20052;-48
2021/11/08 05:34:03;;;;;;;85.18;25.85;;;10.60;99.90;;;;;;5031120;28;20469;-47
2021/11/08 05:36:28;;;;;;;87.97;23.83;;;10.30;99.90;;;;;;5031070;28;20025;-48
2021/11/08 05:38:54;;;;;;;146.93;31.77;;;10.10;99.90;;;;;;5031179;28;20036;-50
2021/11/08 05:41:20;;;;;;;226.75;40.60;;;10.10;99.90;;;;;;4981602;28;20120;-48
2021/11/08 05:43:46;;;;;;;194.82;33.88;;;10.20;99.90;;;;;;5010429;28;20033;-48
2021/11/08 05:46:12;;;;;;;200.70;35.60;;;10.30;99.90;;;;;;5011605;28;20089;-48
2021/11/08 05:48:38;;;;;;;136.27;30.13;;;10.30;99.90;;;;;;5012449;28;20061;-48
2021/11/08 05:51:05;;;;;;;251.98;38.47;;;10.30;99.90;;;;;;5019680;28;20041;-48
2021/11/08 05:53:32;;;;;;;206.90;31.95;;;10.40;99.90;;;;;;5020245;28;20045;-48
2021/11/08 06:50:10;;;;;;;65.65;29.92;;;10.40;99.90;;;;;;5075013;28;20383;-47
2021/11/08 06:52:37;;;;;;;59.50;26.35;;;10.50;99.90;;;;;;5075670;28;20020;-47
2021/11/08 06:55:06;;;;;;;57.92;26.00;;;10.60;99.90;;;;;;5075517;28;20029;-47
2021/11/08 06:57:43;;;;;;;56.35;25.73;;;10.50;99.90;;;;;;5056148;28;20040;-47
2021/11/08 07:00:10;;;;;;;60.88;26.58;;;10.50;99.90;;;;;;5073115;28;20054;-47
2021/11/08 07:02:35;;;;;;;60.28;25.27;;;10.60;99.90;;;;;;5056520;28;20029;-48
2021/11/08 07:05:01;;;;;;;60.75;28.08;;;10.70;99.90;;;;;;5081824;28;20043;-48
2021/11/08 07:07:27;;;;;;;56.75;23.77;;;10.70;99.90;;;;;;5075562;28;20025;-50
2021/11/08 07:09:53;;;;;;;48.75;23.50;;;10.40;99.90;;;;;;5075771;28;20036;-49
2021/11/08 07:12:18;;;;;;;52.50;23.05;;;10.20;99.90;;;;;;5076122;28;20029;-51
2021/11/08 07:14:44;;;;;;;60.15;25.45;;;10.20;99.90;;;;;;5075950;28;20033;-47
2021/11/08 07:17:10;;;;;;;56.58;25.52;;;10.20;99.90;;;;;;5023294;28;20047;-48
2021/11/08 07:19:37;;;;;;;58.78;24.55;;;10.20;99.90;;;;;;5074894;28;20043;-48
2021/11/08 07:22:03;;;;;;;67.15;27.48;;;10.20;99.90;;;;;;5075743;28;20028;-48
2021/11/08 07:24:29;;;;;;;58.97;24.50;;;10.30;99.90;;;;;;5073370;28;20040;-48
2021/11/08 07:26:55;;;;;;;67.35;23.52;;;10.30;99.90;;;;;;5039577;28;20467;-48
2021/11/08 07:29:22;;;;;;;62.03;23.25;;;10.20;99.90;;;;;;5073109;28;20082;-48
2021/11/08 07:31:49;;;;;;;82.18;24.13;;;10.20;99.90;;;;;;5073055;28;20432;-48
2021/11/08 07:34:14;;;;;;;75.72;24.42;;;10.30;99.90;;;;;;5037668;28;20037;-48
2021/11/08 07:36:40;;;;;;;75.75;25.20;;;10.30;99.90;;;;;;5079931;28;20028;-48
2021/11/08 07:39:07;;;;;;;102.88;29.83;;;10.30;99.90;;;;;;5093813;28;20047;-49
2021/11/08 07:41:34;;;;;;;93.15;28.02;;;10.40;99.90;;;;;;5059338;28;20052;-48
2021/11/08 07:44:01;;;;;;;88.65;28.23;;;10.50;99.90;;;;;;5093251;28;20097;-48
2021/11/08 07:46:27;;;;;;;95.30;33.25;;;10.60;99.90;;;;;;5092705;28;20039;-48
2021/11/08 07:48:53;;;;;;;90.68;37.53;;;10.60;99.90;;;;;;5006786;28;20059;-48
2021/11/08 07:51:20;;;;;;;92.18;35.35;;;10.60;99.90;;;;;;5037981;28;20112;-48
2021/11/08 07:53:47;;;;;;;92.75;31.50;;;10.70;99.90;;;;;;5072591;28;20063;-49
2021/11/08 07:56:13;;;;;;;83.55;30.27;;;10.80;99.90;;;;;;5072018;28;20488;-49
2021/11/08 07:58:40;;;;;;;77.20;26.15;;;10.80;99.90;;;;;;5041085;28;20053;-49
2021/11/08 08:01:07;;;;;;;80.82;28.00;;;10.80;99.90;;;;;;5048792;28;20033;-48
2021/11/08 08:03:34;;;;;;;76.97;27.02;;;10.80;99.90;;;;;;5052563;28;20056;-48
2021/11/08 08:06:02;;;;;;;87.47;28.77;;;10.90;99.90;;;;;;5051064;28;20049;-48
2021/11/08 08:08:28;;;;;;;80.32;26.95;;;10.90;99.90;;;;;;5050385;28;20045;-48
2021/11/08 08:10:54;;;;;;;77.00;24.98;;;10.70;99.90;;;;;;5049814;28;20033;-48
2021/11/08 08:13:25;;;;;;;88.03;27.05;;;10.70;99.90;;;;;;5041707;28;20059;-48
2021/11/08 08:15:54;;;;;;;64.90;25.10;;;10.70;99.90;;;;;;5040331;28;20472;-48
2021/11/08 08:18:20;;;;;;;76.45;24.83;;;10.50;99.90;;;;;;5027441;28;20037;-48
2021/11/08 08:20:46;;;;;;;56.42;21.83;;;10.20;99.90;;;;;;5045346;28;20087;-49
2021/11/08 08:23:12;;;;;;;86.35;42.40;;;10.20;99.90;;;;;;5028022;28;20597;-48
2021/11/08 08:25:38;;;;;;;77.45;27.90;;;10.20;99.90;;;;;;5050064;28;20507;-49
2021/11/08 08:28:04;;;;;;;71.43;28.10;;;10.30;99.90;;;;;;5043979;28;20089;-49
2021/11/08 08:30:30;;;;;;;98.65;51.70;;;10.40;99.90;;;;;;5053174;28;20120;-48
2021/11/08 08:32:56;;;;;;;66.20;30.75;;;10.60;99.90;;;;;;5061962;28;20048;-49
2021/11/08 08:35:22;;;;;;;68.72;33.58;;;10.60;99.90;;;;;;5082470;28;20043;-48
2021/11/08 08:37:48;;;;;;;71.55;33.20;;;10.50;99.90;;;;;;5073019;28;20060;-48
2021/11/08 08:40:15;;;;;;;62.53;28.95;;;10.40;99.90;;;;;;5080528;28;20102;-51
2021/11/08 08:42:41;;;;;;;71.70;32.70;;;10.20;99.90;;;;;;5042302;28;20028;-48
2021/11/08 08:45:09;;;;;;;68.05;30.55;;;10.30;99.90;;;;;;5079464;28;20111;-49
2021/11/08 08:47:35;;;;;;;84.75;42.08;;;10.20;99.90;;;;;;5016696;28;20137;-49
2021/11/08 08:50:02;;;;;;;82.85;36.20;;;10.20;99.90;;;;;;5038142;28;20033;-48
2021/11/08 08:52:27;;;;;;;80.65;31.02;;;10.40;99.90;;;;;;5033693;28;20465;-49
2021/11/08 08:54:54;;;;;;;72.65;33.38;;;10.50;99.90;;;;;;5030282;28;20028;-49
2021/11/08 08:57:20;;;;;;;79.10;37.65;;;10.60;99.90;;;;;;4988548;28;20035;-48
2021/11/08 08:59:46;;;;;;;81.50;35.17;;;10.80;99.90;;;;;;5033244;28;20104;-48
2021/11/08 09:02:12;;;;;;;74.90;32.38;;;10.90;99.90;;;;;;5036181;28;20048;-49
2021/11/08 09:04:39;;;;;;;77.93;32.42;;;11.10;99.90;;;;;;5034310;28;20053;-49
2021/11/08 09:07:06;;;;;;;73.20;29.63;;;11.20;99.90;;;;;;5021902;28;20041;-50
2021/11/08 09:09:34;;;;;;;63.60;28.63;;;11.20;99.90;;;;;;5039883;28;20029;-49
2021/11/08 09:12:00;;;;;;;69.90;31.98;;;11.00;99.90;;;;;;5038261;28;20033;-48
2021/11/08 09:14:29;;;;;;;81.32;32.75;;;10.90;99.90;;;;;;5037050;28;20389;-50
2021/11/08 09:16:56;;;;;;;82.55;35.08;;;10.80;99.90;;;;;;5019926;28;20049;-49
2021/11/08 09:19:22;;;;;;;66.93;28.77;;;10.90;99.90;;;;;;5034759;28;20036;-48
2021/11/08 09:21:48;;;;;;;58.72;25.52;;;10.70;99.90;;;;;;5040369;28;20039;-49
2021/11/08 09:24:14;;;;;;;74.90;32.70;;;10.50;99.90;;;;;;5026694;28;20045;-48
2021/11/08 09:26:41;;;;;;;73.15;32.38;;;10.50;99.90;;;;;;5031049;28;20041;-49
2021/11/08 09:29:07;;;;;;;78.10;32.30;;;10.40;99.90;;;;;;5047457;28;20452;-49
2021/11/08 09:31:33;;;;;;;66.90;29.98;;;10.50;99.90;;;;;;5048809;28;20069;-48
2021/11/08 09:34:08;;;;;;;71.38;33.33;;;10.40;99.90;;;;;;5039379;28;20172;-51
2021/11/08 09:36:37;;;;;;;70.45;34.15;;;10.50;99.90;;;;;;5042813;28;20052;-48
2021/11/08 09:39:20;;;;;;;72.10;33.53;;;10.50;99.90;;;;;;5043107;28;20079;-49
2021/11/08 09:41:47;;;;;;;73.82;31.15;;;10.60;99.90;;;;;;5044912;28;20121;-48
2021/11/08 09:44:14;;;;;;;70.15;32.28;;;10.50;99.90;;;;;;5047894;28;20037;-49
2021/11/08 09:46:42;;;;;;;63.35;29.20;;;10.50;99.90;;;;;;5040226;28;20041;-48
2021/11/08 09:49:08;;;;;;;63.88;30.60;;;10.50;99.90;;;;;;5067688;28;20048;-48
2021/11/08 09:51:41;;;;;;;65.65;32.25;;;10.40;99.90;;;;;;5064750;28;20028;-48
2021/11/08 09:54:10;;;;;;;74.57;33.28;;;10.50;99.90;;;;;;5060543;28;20074;-49
2021/11/08 09:56:36;;;;;;;68.85;31.92;;;10.60;99.90;;;;;;5066769;28;20028;-47
2021/11/08 09:59:03;;;;;;;66.75;33.33;;;10.60;99.90;;;;;;5061222;28;20037;-48
2021/11/08 10:01:31;;;;;;;67.13;30.30;;;10.60;99.90;;;;;;5064768;28;20028;-48
2021/11/08 10:03:57;;;;;;;57.25;28.17;;;10.70;99.90;;;;;;5062279;28;20346;-49
2021/11/08 10:06:23;;;;;;;66.97;31.02;;;10.60;99.90;;;;;;5058970;28;20162;-48
2021/11/08 10:08:50;;;;;;;58.55;30.65;;;10.60;99.90;;;;;;5063568;28;20037;-50
2021/11/08 10:11:18;;;;;;;70.75;34.60;;;10.60;99.90;;;;;;5065282;28;20412;-47
2021/11/08 10:13:46;;;;;;;60.63;31.90;;;10.70;99.90;;;;;;5045160;28;20065;-49
2021/11/08 10:16:26;;;;;;;66.88;33.08;;;10.60;99.90;;;;;;5064038;28;20020;-49
2021/11/08 10:18:55;;;;;;;63.88;34.17;;;10.80;99.90;;;;;;5071233;28;20044;-49
2021/11/08 10:21:28;;;;;;;63.47;32.72;;;10.80;99.90;;;;;;5051449;28;20353;-47
2021/11/08 10:23:56;;;;;;;52.08;27.92;;;10.90;99.90;;;;;;5068070;28;20032;-47
2021/11/08 10:26:27;;;;;;;61.30;32.33;;;11.00;99.90;;;;;;5067868;28;20460;-48
2021/11/08 10:28:55;;;;;;;63.17;30.88;;;11.10;99.90;;;;;;5067133;28;20070;-48
2021/11/08 10:31:30;;;;;;;60.53;32.15;;;11.10;99.90;;;;;;5074760;28;20099;-50
2021/11/08 10:33:59;;;;;;;57.50;30.35;;;11.10;99.90;;;;;;5068202;28;20029;-47
2021/11/08 10:36:25;;;;;;;64.72;34.60;;;10.90;99.90;;;;;;5054172;28;20066;-49
2021/11/08 10:38:53;;;;;;;61.08;33.03;;;11.10;99.90;;;;;;5058939;28;20021;-48
2021/11/08 10:41:30;;;;;;;67.03;33.10;;;11.20;99.90;;;;;;5075409;28;20035;-49
2021/11/08 10:44:11;;;;;;;63.67;33.97;;;11.20;99.90;;;;;;5065560;28;20392;-50
2021/11/08 10:46:42;;;;;;;75.82;39.60;;;11.30;99.90;;;;;;5030768;28;20032;-48
2021/11/08 10:49:12;;;;;;;63.97;32.38;;;11.40;99.90;;;;;;5067362;28;20472;-49
2021/11/08 10:51:40;;;;;;;132.57;111.63;;;11.40;99.90;;;;;;5065011;28;20049;-47
2021/11/08 10:54:15;;;;;;;232.13;92.55;;;11.30;99.90;;;;;;5064552;28;20472;-46
2021/11/08 10:56:45;;;;;;;65.47;33.45;;;11.30;99.90;;;;;;5065308;28;20051;-53
2021/11/08 10:59:17;;;;;;;66.32;35.50;;;11.30;99.90;;;;;;5073917;28;20029;-52
2021/11/08 11:01:55;;;;;;;63.25;37.70;;;11.30;99.90;;;;;;5061113;28;20024;-52
2021/11/08 11:04:43;;;;;;;68.45;37.95;;;11.40;99.90;;;;;;5057106;28;20033;-53
2021/11/08 11:07:12;;;;;;;60.88;36.22;;;11.50;99.90;;;;;;5059621;28;20037;-50
2021/11/08 11:09:38;;;;;;;58.28;35.80;;;11.60;99.90;;;;;;5066747;28;20058;-50
2021/11/08 11:12:15;;;;;;;75.20;41.83;;;11.70;99.90;;;;;;5070318;28;20411;-51
2021/11/08 11:14:46;;;;;;;64.00;35.88;;;11.50;99.90;;;;;;5079939;28;20944;-52
2021/11/08 11:17:16;;;;;;;54.97;32.13;;;11.60;99.90;;;;;;5052601;28;20068;-51
2021/11/08 11:19:42;;;;;;;56.65;31.48;;;11.70;99.90;;;;;;5053876;28;20031;-50
2021/11/08 11:22:13;;;;;;;58.35;32.88;;;11.60;99.90;;;;;;5047000;28;20036;-50
2021/11/08 11:24:43;;;;;;;54.45;31.60;;;11.50;99.90;;;;;;5066613;28;20036;-51
2021/11/08 11:27:31;;;;;;;58.88;32.97;;;11.60;99.90;;;;;;5069249;28;20029;-50
2021/11/08 11:30:16;;;;;;;54.83;33.33;;;11.60;99.90;;;;;;5071157;28;20029;-50
2021/11/08 11:32:43;;;;;;;55.35;33.75;;;11.70;99.90;;;;;;5071669;28;20037;-50
2021/11/08 11:52:00;;;;;;;42.42;28.92;;;12.00;99.90;;;;;;5069103;28;20054;-49
2021/11/08 11:54:30;;;;;;;45.65;29.55;;;11.90;99.90;;;;;;5065414;28;20036;-49
2021/11/08 11:56:58;;;;;;;43.88;29.67;;;12.10;99.90;;;;;;5070123;28;20031;-49
2021/11/08 11:59:24;;;;;;;43.85;30.33;;;12.10;99.90;;;;;;5066871;28;20035;-50
2021/11/08 12:01:51;;;;;;;46.55;30.10;;;11.90;99.90;;;;;;5069434;28;20032;-50
2021/11/08 12:04:17;;;;;;;45.67;29.15;;;11.90;99.90;;;;;;5071919;28;20047;-50
2021/11/08 12:06:47;;;;;;;41.17;27.58;;;12.10;99.90;;;;;;5060471;28;20261;-45
2021/11/08 12:09:17;;;;;;;38.53;26.90;;;12.10;99.90;;;;;;5062162;28;20041;-50
2021/11/08 12:11:51;;;;;;;46.33;30.80;;;12.10;99.90;;;;;;5058777;28;20025;-47
2021/11/08 12:14:18;;;;;;;48.88;30.27;;;12.20;99.90;;;;;;5065733;28;20457;-45
2021/11/08 12:17:03;;;;;;;38.17;26.05;;;12.20;99.90;;;;;;5064323;28;20053;-49
2021/11/08 12:19:38;;;;;;;33.35;23.42;;;12.20;99.90;;;;;;5041970;28;20067;-54
2021/11/08 12:22:15;;;;;;;45.22;29.98;;;12.20;99.90;;;;;;5060845;28;20040;-49
2021/11/08 12:24:58;;;;;;;37.60;27.50;;;12.10;99.90;;;;;;5050106;28;20047;-50
2021/11/08 12:27:43;;;;;;;35.80;26.20;;;12.10;99.90;;;;;;5058595;28;20115;-52
2021/11/08 12:30:11;;;;;;;38.45;26.05;;;11.80;99.90;;;;;;5056657;28;20875;-51
2021/11/08 12:32:42;;;;;;;35.70;25.85;;;11.80;99.90;;;;;;5062765;28;20045;-51
2021/11/08 12:35:15;;;;;;;35.30;24.48;;;11.90;99.90;;;;;;5066398;28;20123;-50
2021/11/08 12:37:41;;;;;;;35.20;25.83;;;11.80;99.90;;;;;;5051314;28;20068;-50
2021/11/08 12:40:07;;;;;;;41.97;26.20;;;11.80;99.90;;;;;;5042477;28;20097;-49
2021/11/08 12:42:42;;;;;;;36.55;25.95;;;11.80;99.90;;;;;;5026667;28;20294;-51
2021/11/08 12:45:14;;;;;;;35.88;23.98;;;11.80;99.90;;;;;;5058168;28;20033;-51
2021/11/08 12:47:40;;;;;;;33.13;23.45;;;11.70;99.90;;;;;;5030229;28;20115;-49
2021/11/08 12:50:07;;;;;;;31.98;22.67;;;11.70;99.90;;;;;;5059528;28;20108;-52
2021/11/08 12:52:39;;;;;;;35.83;24.73;;;11.60;99.90;;;;;;5065294;28;20052;-50
2021/11/08 12:55:12;;;;;;;37.83;23.40;;;11.60;99.90;;;;;;5045339;28;20043;-48
2021/11/08 12:57:50;;;;;;;42.38;28.55;;;11.70;99.90;;;;;;5056719;28;20063;-48
2021/11/08 13:00:23;;;;;;;35.00;24.85;;;11.70;99.90;;;;;;5041922;28;20044;-49
2021/11/08 13:02:55;;;;;;;32.92;23.73;;;11.80;99.90;;;;;;5056792;28;20037;-51
2021/11/08 13:05:33;;;;;;;34.03;23.65;;;11.70;99.90;;;;;;5059080;28;20073;-49
2021/11/08 13:08:01;;;;;;;32.38;23.65;;;11.80;99.90;;;;;;5056259;28;20032;-52
2021/11/08 13:10:33;;;;;;;36.85;26.55;;;11.70;99.90;;;;;;5050012;28;20052;-48
2021/11/08 13:12:59;;;;;;;;;;;11.80;99.90;;;;;;5056322;28;20020;-47
2021/11/08 13:15:31;;;;;;;41.53;28.90;;;11.90;99.90;;;;;;5061817;28;20348;-48
2021/11/08 13:18:06;;;;;;;33.00;22.92;;;11.80;99.90;;;;;;5056986;28;20072;-51
2021/11/08 13:20:43;;;;;;;32.78;23.38;;;11.80;99.90;;;;;;5046440;28;20044;-52
2021/11/08 13:23:15;;;;;;;32.90;23.48;;;11.70;99.90;;;;;;5055756;28;20053;-50
2021/11/08 13:25:46;;;;;;;30.52;22.25;;;11.70;99.90;;;;;;5057097;28;20425;-51
2021/11/08 13:28:19;;;;;;;33.08;22.17;;;11.70;99.90;;;;;;5052112;28;20033;-48
2021/11/08 13:30:51;;;;;;;30.00;20.48;;;11.70;99.90;;;;;;5052556;28;20040;-49
2021/11/08 13:33:24;;;;;;;31.75;21.08;;;11.60;99.90;;;;;;5061979;28;20024;-46
2021/11/08 13:35:50;;;;;;;31.77;22.27;;;11.60;99.90;;;;;;5013587;28;20120;-48
2021/11/08 13:38:24;;;;;;;31.58;22.58;;;11.60;99.90;;;;;;5059506;28;20483;-49
2021/11/08 13:40:54;;;;;;;30.92;21.08;;;11.60;99.90;;;;;;5040722;28;20041;-54
2021/11/08 13:43:33;;;;;;;31.95;23.42;;;11.60;99.90;;;;;;5057531;28;20028;-55
2021/11/08 13:46:26;;;;;;;32.53;22.08;;;11.40;99.90;;;;;;5018046;28;20041;-48
2021/11/08 13:48:58;;;;;;;31.77;21.13;;;11.50;99.90;;;;;;4985814;28;20554;-56
2021/11/08 13:51:26;;;;;;;;;;;11.50;99.90;;;;;;4995270;28;20038;-51
2021/11/08 13:53:58;;;;;;;28.58;20.58;;;11.40;99.90;;;;;;4979342;28;20000;-51
2021/11/08 13:56:31;;;;;;;;;;;11.30;99.90;;;;;;4994759;28;20030;-48
2021/11/08 13:58:59;;;;;;;;;;;11.20;99.90;;;;;;4994343;28;20000;-55
2021/11/08 14:01:30;;;;;;;34.08;24.05;;;11.10;99.90;;;;;;4993043;28;19906;-54
2021/11/08 14:03:56;;;;;;;34.63;23.73;;;11.20;99.90;;;;;;4971984;28;20053;-52
2021/11/08 14:06:42;;;;;;;33.25;21.80;;;11.30;99.90;;;;;;4991918;28;20398;-52
2021/11/08 14:09:12;;;;;;;33.53;23.15;;;11.10;99.90;;;;;;4993105;28;20379;-52
2021/11/08 14:11:42;;;;;;;37.10;25.70;;;11.20;99.90;;;;;;4958703;28;20530;-52
2021/11/08 14:14:30;;;;;;;37.22;25.20;;;11.30;99.90;;;;;;4993678;28;20034;-51
2021/11/08 14:17:07;;;;;;;35.03;24.65;;;11.40;99.90;;;;;;5012338;28;20053;-52
2021/11/08 14:19:33;;;;;;;33.40;23.35;;;11.50;99.90;;;;;;4971630;28;20035;-51
2021/11/08 14:21:59;;;;;;;32.78;22.63;;;11.40;99.90;;;;;;5012742;28;20492;-53
2021/11/08 14:24:26;;;;;;;40.05;26.42;;;11.40;99.90;;;;;;4997492;28;20037;-51
2021/11/08 14:26:58;;;;;;;39.92;28.15;;;11.40;99.90;;;;;;5053309;28;20068;-53
2021/11/08 14:29:30;;;;;;;37.17;25.95;;;11.50;99.90;;;;;;5070069;28;20068;-51
2021/11/08 14:31:58;;;;;;;33.08;22.13;;;11.50;99.90;;;;;;5050082;28;20376;-51
2021/11/08 14:34:29;;;;;;;30.17;20.60;;;11.40;99.90;;;;;;5069954;28;20086;-52
2021/11/08 14:36:56;;;;;;;32.88;22.33;;;11.10;99.90;;;;;;5060175;28;20381;-54
2021/11/08 14:39:25;;;;;;;35.58;23.45;;;11.10;99.90;;;;;;5056525;28;20112;-55
2021/11/08 14:41:57;;;;;;;34.42;23.52;;;11.10;99.90;;;;;;5025214;28;20048;-53
2021/11/08 14:44:23;;;;;;;;;;;11.00;99.90;;;;;;5054301;28;20046;-51
2021/11/08 14:46:52;;;;;;;36.92;24.45;;;11.10;99.90;;;;;;5051521;28;20307;-51